createdAt,value
2022-09-11T00:01:12.432Z,100.00
2022-09-11T00:03:39.498Z,100.00
2022-09-11T00:06:08.348Z,100.00
2022-09-11T00:08:35.101Z,100.00
2022-09-11T00:11:05.985Z,100.00
2022-09-11T00:13:32.828Z,100.00
2022-09-11T00:15:59.650Z,100.00
2022-09-11T00:18:26.573Z,100.00
2022-09-11T00:20:55.461Z,100.00
2022-09-11T00:23:24.407Z,100.00
2022-09-11T00:25:51.361Z,100.00
2022-09-11T00:28:20.672Z,100.00
2022-09-11T00:30:56.932Z,100.00
2022-09-11T00:33:23.445Z,100.00
2022-09-11T00:36:03.832Z,100.00
2022-09-11T00:38:33.262Z,100.00
2022-09-11T00:41:02.573Z,100.00
2022-09-11T00:43:31.013Z,100.00
2022-09-11T00:46:02.777Z,100.00
2022-09-11T00:48:34.410Z,100.00
2022-09-11T00:51:03.930Z,100.00
2022-09-11T00:53:34.327Z,100.00
2022-09-11T00:56:05.198Z,100.00
2022-09-11T00:58:38.246Z,100.00
2022-09-11T01:01:05.015Z,100.00
2022-09-11T01:03:32.143Z,100.00
2022-09-11T01:05:59.570Z,100.00
2022-09-11T01:08:26.229Z,100.00
2022-09-11T01:11:13.356Z,100.00
2022-09-11T01:14:08.403Z,100.00
2022-09-11T01:16:43.447Z,100.00
2022-09-11T01:19:40.294Z,100.00
2022-09-11T01:22:20.783Z,100.00
2022-09-11T01:25:02.126Z,100.00
2022-09-11T01:27:39.754Z,100.00
2022-09-11T01:30:11.732Z,100.00
2022-09-11T01:33:00.831Z,100.00
2022-09-11T01:36:07.204Z,100.00
2022-09-11T01:38:57.946Z,100.00
2022-09-11T01:41:48.506Z,100.00
2022-09-11T01:44:22.921Z,100.00
2022-09-11T01:46:53.047Z,100.00
2022-09-11T01:49:41.452Z,100.00
2022-09-11T01:52:12.940Z,100.00
2022-09-11T01:54:49.748Z,100.00
2022-09-11T01:57:25.403Z,100.00
2022-09-11T01:59:59.296Z,100.00
2022-09-11T02:02:31.057Z,100.00
2022-09-11T02:05:06.275Z,100.00
2022-09-11T02:07:41.593Z,100.00
2022-09-11T02:10:11.921Z,100.00
2022-09-11T02:12:43.866Z,100.00
2022-09-11T02:15:13.759Z,100.00
2022-09-11T02:17:57.607Z,100.00
2022-09-11T02:20:28.714Z,100.00
2022-09-11T02:22:56.668Z,100.00
2022-09-11T02:25:23.781Z,100.00
2022-09-11T02:27:55.049Z,100.00
2022-09-11T02:30:21.597Z,100.00
2022-09-11T02:32:48.525Z,100.00
2022-09-11T02:35:16.362Z,100.00
2022-09-11T02:37:57.378Z,100.00
2022-09-11T02:40:39.363Z,100.00
2022-09-11T02:43:06.407Z,100.00
2022-09-11T02:46:12.330Z,100.00
2022-09-11T02:48:57.103Z,100.00
2022-09-11T02:52:02.572Z,100.00
2022-09-11T02:55:08.123Z,100.00
2022-09-11T02:57:45.458Z,100.00
2022-09-11T03:00:13.408Z,100.00
2022-09-11T03:02:42.963Z,100.00
2022-09-11T03:05:11.137Z,100.00
2022-09-11T03:07:40.235Z,100.00
2022-09-11T03:10:08.386Z,100.00
2022-09-11T03:12:36.575Z,100.00
2022-09-11T03:15:03.870Z,100.00
2022-09-11T03:17:30.541Z,100.00
2022-09-11T03:19:57.235Z,100.00
2022-09-11T03:22:24.014Z,100.00
2022-09-11T03:24:51.865Z,100.00
2022-09-11T03:27:21.562Z,100.00
2022-09-11T03:29:48.324Z,100.00
2022-09-11T03:32:16.058Z,100.00
2022-09-11T03:34:42.528Z,100.00
2022-09-11T03:37:08.977Z,100.00
2022-09-11T03:39:35.619Z,100.00
2022-09-11T03:42:02.283Z,100.00
2022-09-11T03:44:28.979Z,100.00
2022-09-11T03:46:56.398Z,100.00
2022-09-11T03:49:22.929Z,100.00
2022-09-11T03:51:49.350Z,100.00
2022-09-11T03:54:17.683Z,100.00
2022-09-11T03:56:45.431Z,100.00
2022-09-11T03:59:12.615Z,100.00
2022-09-11T04:01:39.241Z,100.00
2022-09-11T04:04:06.425Z,100.00
2022-09-11T04:06:37.917Z,100.00
2022-09-11T04:09:05.259Z,100.00
2022-09-11T04:11:36.783Z,100.00
2022-09-11T04:14:07.550Z,100.00
2022-09-11T04:16:36.597Z,100.00
2022-09-11T04:19:04.060Z,100.00
2022-09-11T04:21:34.295Z,100.00
2022-09-11T04:24:02.826Z,100.00
2022-09-11T04:26:32.341Z,100.00
2022-09-11T04:29:06.552Z,100.00
2022-09-11T04:31:36.098Z,100.00
2022-09-11T04:34:04.074Z,100.00
2022-09-11T04:36:35.009Z,100.00
2022-09-11T04:39:01.722Z,100.00
2022-09-11T04:41:29.618Z,100.00
2022-09-11T04:44:04.860Z,100.00
2022-09-11T04:46:34.365Z,100.00
2022-09-11T04:49:03.096Z,100.00
2022-09-11T04:51:33.460Z,100.00
2022-09-11T04:54:04.187Z,100.00
2022-09-11T04:56:39.566Z,100.00
2022-09-11T04:59:15.881Z,100.00
2022-09-11T05:01:46.870Z,100.00
2022-09-11T05:04:16.948Z,100.00
2022-09-11T05:06:48.201Z,100.00
2022-09-11T05:09:18.223Z,100.00
2022-09-11T05:11:47.160Z,100.00
2022-09-11T05:14:15.217Z,100.00
2022-09-11T05:16:44.293Z,100.00
2022-09-11T05:19:11.897Z,100.00
2022-09-11T05:21:39.431Z,100.00
2022-09-11T05:24:05.874Z,100.00
2022-09-11T05:26:36.362Z,100.00
2022-09-11T05:29:10.160Z,100.00
2022-09-11T05:31:42.998Z,100.00
2022-09-11T05:34:11.034Z,100.00
2022-09-11T05:36:37.971Z,100.00
2022-09-11T05:39:05.068Z,100.00
2022-09-11T05:41:33.682Z,100.00
2022-09-11T05:44:00.543Z,100.00
2022-09-11T05:46:27.042Z,100.00
2022-09-11T05:48:59.023Z,100.00
2022-09-11T05:51:26.885Z,100.00
2022-09-11T05:53:55.039Z,100.00
2022-09-11T05:56:24.057Z,100.00
2022-09-11T05:58:53.379Z,100.00
2022-09-11T06:01:26.814Z,100.00
2022-09-11T06:04:03.025Z,100.00
2022-09-11T06:06:31.335Z,100.00
2022-09-11T06:08:57.878Z,100.00
2022-09-11T06:11:26.033Z,100.00
2022-09-11T06:13:52.651Z,100.00
2022-09-11T06:16:21.727Z,100.00
2022-09-11T06:18:50.203Z,100.00
2022-09-11T06:21:21.331Z,100.00
2022-09-11T06:23:54.881Z,100.00
2022-09-11T06:26:25.552Z,100.00
2022-09-11T06:28:53.659Z,100.00
2022-09-11T06:31:24.250Z,100.00
2022-09-11T06:33:52.749Z,100.00
2022-09-11T06:36:23.036Z,100.00
2022-09-11T06:38:55.616Z,100.00
2022-09-11T06:41:24.938Z,100.00
2022-09-11T06:43:55.325Z,100.00
2022-09-11T06:46:24.108Z,100.00
2022-09-11T06:48:55.733Z,100.00
2022-09-11T06:51:25.590Z,100.00
2022-09-11T06:53:57.754Z,100.00
2022-09-11T06:56:27.033Z,100.00
2022-09-11T06:58:54.040Z,100.00
2022-09-11T07:01:24.894Z,100.00
2022-09-11T07:03:59.220Z,99.76
2022-09-11T07:06:28.726Z,99.33
2022-09-11T07:09:01.095Z,99.12
2022-09-11T07:11:38.507Z,99.32
2022-09-11T07:14:06.466Z,99.44
2022-09-11T07:16:37.711Z,100.00
2022-09-11T07:19:09.873Z,99.78
2022-09-11T07:21:38.426Z,99.76
2022-09-11T07:24:06.014Z,99.46
2022-09-11T07:26:39.263Z,99.23
2022-09-11T07:29:14.504Z,98.79
2022-09-11T07:31:42.708Z,98.44
2022-09-11T07:34:11.002Z,98.65
2022-09-11T07:36:37.691Z,97.49
2022-09-11T07:39:07.729Z,97.52
2022-09-11T07:41:38.302Z,96.96
2022-09-11T07:44:12.897Z,96.63
2022-09-11T07:46:41.412Z,95.15
2022-09-11T07:49:10.151Z,95.01
2022-09-11T07:51:39.206Z,95.12
2022-09-11T07:54:08.045Z,95.43
2022-09-11T07:56:36.314Z,94.67
2022-09-11T07:59:08.942Z,94.69
2022-09-11T08:01:38.459Z,93.70
2022-09-11T08:04:10.163Z,92.99
2022-09-11T08:06:38.163Z,92.30
2022-09-11T08:09:15.188Z,92.58
2022-09-11T08:11:48.652Z,92.25
2022-09-11T08:14:17.635Z,92.41
2022-09-11T08:16:46.432Z,88.18
2022-09-11T08:19:21.886Z,89.36
2022-09-11T08:21:53.452Z,89.20
2022-09-11T08:24:21.337Z,88.50
2022-09-11T08:26:50.572Z,88.76
2022-09-11T08:29:18.459Z,88.95
2022-09-11T08:31:45.418Z,89.25
2022-09-11T08:34:12.599Z,89.40
2022-09-11T08:36:39.629Z,89.03
2022-09-11T08:39:08.946Z,89.50
2022-09-11T08:41:50.097Z,89.60
2022-09-11T08:44:23.104Z,89.74
2022-09-11T08:47:08.474Z,90.00
2022-09-11T08:49:42.933Z,89.54
2022-09-11T08:52:13.914Z,90.52
2022-09-11T08:54:42.311Z,90.65
2022-09-11T08:57:37.752Z,90.21
2022-09-11T09:00:21.230Z,90.51
2022-09-11T09:03:21.005Z,90.99
2022-09-11T09:06:13.893Z,90.87
2022-09-11T09:08:55.946Z,90.92
2022-09-11T09:11:57.130Z,90.10
2022-09-11T09:14:39.870Z,89.25
2022-09-11T09:17:19.935Z,88.73
2022-09-11T09:19:57.539Z,87.64
2022-09-11T09:22:30.135Z,86.67
2022-09-11T09:25:09.923Z,88.02
2022-09-11T09:27:48.689Z,89.01
2022-09-11T09:30:27.210Z,89.44
2022-09-11T09:33:09.220Z,89.44
2022-09-11T09:35:43.691Z,89.85
2022-09-11T09:38:13.999Z,90.01
2022-09-11T09:40:54.030Z,89.96
2022-09-11T09:43:35.758Z,89.90
2022-09-11T09:46:26.117Z,90.51
2022-09-11T09:48:53.114Z,90.62
2022-09-11T09:51:19.481Z,90.64
2022-09-11T09:53:54.941Z,90.08
2022-09-11T09:56:23.700Z,90.06
2022-09-11T09:59:13.999Z,89.76
2022-09-11T10:01:51.157Z,89.38
2022-09-11T10:04:21.661Z,88.62
2022-09-11T10:06:52.290Z,87.18
2022-09-11T10:09:25.209Z,87.43
2022-09-11T10:12:01.832Z,87.57
2022-09-11T10:14:55.864Z,85.84
2022-09-11T10:17:29.485Z,85.88
2022-09-11T10:20:12.118Z,85.25
2022-09-11T10:22:38.810Z,84.89
2022-09-11T10:25:16.967Z,83.58
2022-09-11T10:27:46.254Z,82.44
2022-09-11T10:30:31.535Z,83.01
2022-09-11T10:33:03.586Z,81.56
2022-09-11T10:35:33.250Z,77.94
2022-09-11T10:38:02.357Z,77.31
2022-09-11T10:40:28.893Z,77.16
2022-09-11T10:42:55.385Z,76.39
2022-09-11T10:45:22.713Z,76.42
2022-09-11T10:47:49.298Z,77.24
2022-09-11T10:50:23.263Z,75.56
2022-09-11T10:52:58.708Z,75.28
2022-09-11T10:55:41.509Z,75.00
2022-09-11T10:58:17.326Z,74.43
2022-09-11T11:00:44.932Z,74.53
2022-09-11T11:03:17.219Z,73.15
2022-09-11T11:06:14.150Z,72.50
2022-09-11T11:09:02.886Z,71.93
2022-09-11T11:12:05.462Z,71.73
2022-09-11T11:15:06.394Z,69.34
2022-09-11T11:18:06.527Z,69.66
2022-09-11T11:20:52.362Z,68.86
2022-09-11T11:23:36.119Z,69.19
2022-09-11T11:26:21.212Z,69.79
2022-09-11T11:29:33.935Z,69.63
2022-09-11T11:32:27.854Z,70.86
2022-09-11T11:35:12.768Z,71.72
2022-09-11T11:37:46.250Z,71.86
2022-09-11T11:40:21.414Z,71.33
2022-09-11T11:43:11.415Z,71.17
2022-09-11T11:45:47.375Z,70.67
2022-09-11T11:48:20.573Z,71.38
2022-09-11T11:50:53.350Z,70.69
2022-09-11T11:53:24.621Z,69.37
2022-09-11T11:56:09.871Z,69.60
2022-09-11T11:59:07.147Z,66.78
2022-09-11T12:01:56.043Z,66.71
2022-09-11T12:04:48.739Z,66.60
2022-09-11T12:07:37.230Z,68.84
2022-09-11T12:10:07.002Z,70.21
2022-09-11T12:12:47.769Z,71.15
2022-09-11T12:15:25.650Z,71.05
2022-09-11T12:18:03.281Z,70.93
2022-09-11T12:20:45.014Z,71.18
2022-09-11T12:23:29.886Z,70.69
2022-09-11T12:26:09.246Z,69.26
2022-09-11T12:28:39.096Z,68.89
2022-09-11T12:31:14.039Z,68.53
2022-09-11T12:33:44.132Z,66.52
2022-09-11T12:36:31.695Z,65.48
2022-09-11T12:39:04.545Z,65.40
2022-09-11T12:41:35.620Z,66.39
2022-09-11T12:44:04.673Z,66.04
2022-09-11T12:46:31.989Z,65.45
2022-09-11T12:49:23.281Z,65.73
2022-09-11T12:51:53.821Z,66.32
2022-09-11T12:54:23.297Z,65.68
2022-09-11T12:57:06.442Z,66.23
2022-09-11T12:59:38.591Z,64.42
2022-09-11T13:02:24.656Z,63.40
2022-09-11T13:04:52.190Z,62.46
2022-09-11T13:07:34.721Z,61.30
2022-09-11T13:10:08.121Z,62.09
2022-09-11T13:12:48.709Z,62.25
2022-09-11T13:15:40.929Z,61.09
2022-09-11T13:18:31.608Z,59.52
2022-09-11T13:21:00.648Z,58.92
2022-09-11T13:23:28.326Z,58.48
2022-09-11T13:25:56.663Z,58.50
2022-09-11T13:28:27.298Z,60.28
2022-09-11T13:31:00.992Z,60.48
2022-09-11T13:33:31.686Z,61.40
2022-09-11T13:36:03.111Z,60.93
2022-09-11T13:38:36.531Z,60.84
2022-09-11T13:41:14.883Z,62.20
2022-09-11T13:43:49.229Z,61.25
2022-09-11T13:46:15.759Z,60.93
2022-09-11T13:48:48.986Z,61.48
2022-09-11T13:51:29.522Z,61.04
2022-09-11T13:54:03.988Z,60.77
2022-09-11T13:56:47.170Z,61.15
2022-09-11T13:59:36.377Z,60.09
2022-09-11T14:02:18.974Z,61.32
2022-09-11T14:04:47.265Z,61.51
2022-09-11T14:07:20.778Z,62.58
2022-09-11T14:10:14.898Z,62.34
2022-09-11T14:12:52.842Z,62.95
2022-09-11T14:15:27.958Z,64.33
2022-09-11T14:17:54.533Z,65.00
2022-09-11T14:20:23.110Z,65.60
2022-09-11T14:22:54.700Z,65.79
2022-09-11T14:25:23.359Z,65.95
2022-09-11T14:27:50.387Z,66.50
2022-09-11T14:30:27.937Z,66.19
2022-09-11T14:33:15.359Z,66.64
2022-09-11T14:35:43.685Z,66.82
2022-09-11T14:38:12.825Z,67.02
2022-09-11T14:40:48.251Z,66.88
2022-09-11T14:43:14.718Z,67.00
2022-09-11T14:45:41.309Z,67.11
2022-09-11T14:48:13.242Z,68.54
2022-09-11T14:50:39.930Z,67.69
2022-09-11T14:53:06.399Z,67.62
2022-09-11T14:55:33.926Z,67.76
2022-09-11T14:58:03.959Z,67.62
2022-09-11T15:00:31.910Z,68.28
2022-09-11T15:03:00.255Z,68.35
2022-09-11T15:05:29.663Z,68.02
2022-09-11T15:07:56.823Z,69.13
2022-09-11T15:10:23.351Z,68.54
2022-09-11T15:12:50.060Z,68.93
2022-09-11T15:15:20.122Z,68.74
2022-09-11T15:17:46.574Z,69.24
2022-09-11T15:20:12.991Z,69.78
2022-09-11T15:22:39.694Z,69.56
2022-09-11T15:25:06.707Z,70.16
2022-09-11T15:27:33.678Z,70.31
2022-09-11T15:30:00.659Z,70.39
2022-09-11T15:32:27.452Z,70.07
2022-09-11T15:34:54.042Z,70.67
2022-09-11T15:37:20.898Z,70.59
2022-09-11T15:39:49.610Z,70.42
2022-09-11T15:42:16.169Z,70.81
2022-09-11T15:44:42.525Z,70.78
2022-09-11T15:47:09.160Z,70.65
2022-09-11T15:49:42.775Z,70.40
2022-09-11T15:52:09.250Z,70.84
2022-09-11T15:54:35.808Z,70.74
2022-09-11T15:57:02.329Z,71.10
2022-09-11T15:59:29.019Z,71.02
2022-09-11T16:01:55.680Z,70.97
2022-09-11T16:04:27.926Z,70.97
2022-09-11T16:06:55.165Z,71.04
2022-09-11T16:09:24.697Z,71.47
2022-09-11T16:11:51.798Z,71.90
2022-09-11T16:14:21.022Z,71.77
2022-09-11T16:16:47.891Z,71.92
2022-09-11T16:19:19.926Z,72.40
2022-09-11T16:21:47.289Z,72.60
2022-09-11T16:24:16.241Z,72.44
2022-09-11T16:26:44.210Z,72.66
2022-09-11T16:29:13.021Z,73.13
2022-09-11T16:31:40.047Z,73.00
2022-09-11T16:34:07.335Z,73.31
2022-09-11T16:36:41.787Z,73.47
2022-09-11T16:39:11.574Z,73.55
2022-09-11T16:41:38.446Z,73.44
2022-09-11T16:44:06.758Z,73.50
2022-09-11T16:46:33.472Z,73.94
2022-09-11T16:49:02.184Z,74.06
2022-09-11T16:51:29.859Z,74.46
2022-09-11T16:53:56.444Z,74.71
2022-09-11T16:56:24.306Z,75.67
2022-09-11T16:58:50.799Z,75.62
2022-09-11T17:01:22.916Z,76.17
2022-09-11T17:03:51.856Z,76.27
2022-09-11T17:06:20.221Z,77.06
2022-09-11T17:08:49.901Z,77.34
2022-09-11T17:11:18.972Z,77.42
2022-09-11T17:13:46.554Z,77.66
2022-09-11T17:16:17.061Z,77.84
2022-09-11T17:18:47.973Z,77.59
2022-09-11T17:21:15.174Z,77.85
2022-09-11T17:23:42.311Z,77.75
2022-09-11T17:26:12.499Z,77.89
2022-09-11T17:28:40.136Z,78.68
2022-09-11T17:31:08.788Z,78.82
2022-09-11T17:33:38.208Z,79.34
2022-09-11T17:54:18.741Z,82.97
2022-09-11T17:56:45.177Z,83.53
2022-09-11T17:59:11.659Z,83.94
2022-09-11T18:01:38.144Z,84.64
2022-09-11T18:04:04.660Z,84.44
2022-09-11T18:06:36.699Z,84.85
2022-09-11T18:09:13.834Z,85.40
2022-09-11T18:11:42.938Z,85.14
2022-09-11T18:14:10.099Z,85.94
2022-09-11T18:16:36.829Z,86.31
2022-09-11T18:19:05.436Z,86.22
2022-09-11T18:21:38.363Z,85.89
2022-09-11T18:24:06.348Z,86.40
2022-09-11T18:26:36.613Z,86.69
2022-09-11T18:29:06.999Z,87.40
2022-09-11T18:31:39.959Z,87.17
2022-09-11T18:34:07.236Z,88.09
2022-09-11T18:36:33.674Z,87.88
2022-09-11T18:39:03.575Z,88.48
2022-09-11T18:41:33.410Z,88.52
2022-09-11T18:44:02.756Z,88.27
2022-09-11T18:46:31.756Z,88.42
2022-09-11T18:48:59.984Z,88.31
2022-09-11T18:51:27.154Z,88.38
2022-09-11T18:53:54.517Z,88.64
2022-09-11T18:56:23.019Z,89.20
2022-09-11T18:58:52.081Z,88.99
2022-09-11T19:01:21.189Z,88.55
2022-09-11T19:03:48.757Z,89.16
2022-09-11T19:06:17.831Z,88.80
2022-09-11T19:08:46.953Z,89.04
2022-09-11T19:11:16.557Z,88.81
2022-09-11T19:13:44.725Z,89.10
2022-09-11T19:16:11.829Z,88.85
2022-09-11T19:18:39.154Z,89.15
2022-09-11T19:21:12.350Z,89.02
2022-09-11T19:23:44.693Z,89.60
2022-09-11T19:26:16.746Z,89.08
2022-09-11T19:28:44.671Z,89.30
2022-09-11T19:31:13.069Z,89.98
2022-09-11T19:33:41.278Z,90.40
2022-09-11T19:36:23.350Z,89.84
2022-09-11T19:38:55.761Z,90.07
2022-09-11T19:41:23.861Z,90.15
2022-09-11T19:43:51.091Z,90.73
2022-09-11T19:46:20.442Z,91.14
2022-09-11T19:48:48.946Z,90.99
2022-09-11T19:51:23.663Z,91.11
2022-09-11T19:53:51.548Z,91.15
2022-09-11T19:56:19.065Z,91.03
2022-09-11T19:58:45.712Z,92.02
2022-09-11T20:01:14.593Z,92.07
2022-09-11T20:03:44.040Z,92.22
2022-09-11T20:06:12.141Z,92.53
2022-09-11T20:08:42.779Z,92.73
2022-09-11T20:11:12.392Z,92.70
2022-09-11T20:13:38.882Z,92.78
2022-09-11T20:16:07.532Z,92.61
2022-09-11T20:18:34.772Z,92.58
2022-09-11T20:21:07.340Z,92.18
2022-09-11T20:23:33.892Z,92.72
2022-09-11T20:26:16.814Z,92.19
2022-09-11T20:28:43.888Z,92.59
2022-09-11T20:31:26.401Z,93.16
2022-09-11T20:33:53.162Z,93.59
2022-09-11T20:36:20.227Z,93.70
2022-09-11T20:38:52.710Z,93.17
2022-09-11T20:41:20.972Z,93.32
2022-09-11T20:43:47.358Z,93.66
2022-09-11T20:46:13.955Z,93.28
2022-09-11T20:48:40.636Z,94.52
2022-09-11T20:51:10.252Z,94.51
2022-09-11T20:53:37.555Z,94.73
2022-09-11T20:56:09.473Z,94.50
2022-09-11T20:58:36.317Z,94.30
2022-09-11T21:01:04.777Z,94.23
2022-09-11T21:03:31.298Z,93.99
2022-09-11T21:05:58.247Z,94.82
2022-09-11T21:08:27.714Z,94.90
2022-09-11T21:10:54.125Z,95.26
2022-09-11T21:13:20.561Z,95.09
2022-09-11T21:15:48.360Z,95.21
2022-09-11T21:18:15.395Z,95.17
2022-09-11T21:20:42.275Z,95.71
2022-09-11T21:23:08.753Z,95.61
2022-09-11T21:25:40.214Z,96.12
2022-09-11T21:28:06.763Z,96.06
2022-09-11T21:30:33.340Z,96.30
2022-09-11T21:32:59.826Z,96.11
2022-09-11T21:35:26.176Z,96.33
2022-09-11T21:37:52.881Z,96.53
2022-09-11T21:40:19.237Z,96.33
2022-09-11T21:42:45.904Z,96.52
2022-09-11T21:45:12.342Z,95.89
2022-09-11T21:47:38.779Z,96.27
2022-09-11T21:50:08.001Z,95.80
2022-09-11T21:52:34.990Z,95.54
2022-09-11T21:55:03.751Z,95.66
2022-09-11T21:57:31.429Z,95.76
2022-09-11T21:59:58.503Z,95.25
2022-09-11T22:02:26.236Z,95.13
2022-09-11T22:04:53.197Z,95.01
2022-09-11T22:07:20.066Z,95.19
2022-09-11T22:09:50.247Z,95.33
2022-09-11T22:12:16.886Z,95.62
2022-09-11T22:14:46.879Z,95.38
2022-09-11T22:17:13.517Z,95.59
2022-09-11T22:19:43.159Z,96.08
2022-09-11T22:22:09.654Z,96.12
2022-09-11T22:24:38.562Z,95.87
2022-09-11T22:27:06.403Z,96.00
2022-09-11T22:29:33.083Z,96.20
2022-09-11T22:31:59.803Z,96.08
2022-09-11T22:34:26.417Z,95.68
2022-09-11T22:36:52.820Z,95.73
2022-09-11T22:39:19.284Z,96.23
2022-09-11T22:41:45.714Z,96.53
2022-09-11T22:44:12.498Z,96.47
2022-09-11T22:46:38.880Z,96.44
2022-09-11T22:49:05.896Z,96.25
2022-09-11T22:51:33.204Z,96.68
2022-09-11T22:53:59.918Z,96.85
2022-09-11T22:56:26.380Z,96.68
2022-09-11T22:58:53.792Z,96.64
2022-09-11T23:01:22.724Z,96.57
2022-09-11T23:03:51.497Z,96.51
2022-09-11T23:06:37.421Z,97.03
2022-09-11T23:09:10.074Z,97.03
2022-09-11T23:11:36.561Z,97.36
2022-09-11T23:14:02.970Z,97.57
2022-09-11T23:16:29.945Z,97.51
2022-09-11T23:19:01.809Z,97.55
2022-09-11T23:21:31.029Z,97.81
2022-09-11T23:23:58.060Z,97.38
2022-09-11T23:26:26.874Z,97.17
2022-09-11T23:28:53.982Z,96.97
2022-09-11T23:31:25.112Z,97.26
2022-09-11T23:33:54.342Z,97.28
2022-09-11T23:36:21.555Z,97.04
2022-09-11T23:38:49.101Z,96.83
2022-09-11T23:41:16.122Z,96.95
2022-09-11T23:43:42.775Z,96.77
2022-09-11T23:46:09.898Z,96.42
2022-09-11T23:48:36.474Z,96.60
2022-09-11T23:51:02.932Z,96.01
2022-09-11T23:53:30.335Z,95.95
2022-09-11T23:55:57.856Z,96.13
2022-09-11T23:58:24.469Z,96.45
